sensor_id;sensor_type;location;lat;lon;timestamp;pressure;altitude;pressure_sealevel;temperature;humidity
31299;BME280;17927;52.350;13.402;2023-03-20T00:02:16;101172.41;;;16.22;53.18
31299;BME280;17927;52.350;13.402;2023-03-20T00:04:42;101170.00;;;16.19;53.21
31299;BME280;17927;52.350;13.402;2023-03-20T00:07:07;101163.88;;;16.17;53.43
31299;BME280;17927;52.350;13.402;2023-03-20T00:09:36;101167.78;;;16.14;53.24
31299;BME280;17927;52.350;13.402;2023-03-20T00:12:01;101161.66;;;16.12;53.52
31299;BME280;17927;52.350;13.402;2023-03-20T00:14:27;101164.72;;;16.09;53.48
31299;BME280;17927;52.350;13.402;2023-03-20T00:16:52;101164.03;;;16.07;53.60
31299;BME280;17927;52.350;13.402;2023-03-20T00:19:20;101165.22;;;16.04;53.62
31299;BME280;17927;52.350;13.402;2023-03-20T00:21:47;101164.72;;;16.01;53.62
31299;BME280;17927;52.350;13.402;2023-03-20T00:24:14;101166.91;;;15.97;53.69
31299;BME280;17927;52.350;13.402;2023-03-20T00:26:41;101162.84;;;15.93;53.75
31299;BME280;17927;52.350;13.402;2023-03-20T00:29:16;101164.00;;;15.90;54.02
31299;BME280;17927;52.350;13.402;2023-03-20T00:31:43;101161.81;;;15.86;53.83
31299;BME280;17927;52.350;13.402;2023-03-20T00:34:12;101163.69;;;15.85;54.03
31299;BME280;17927;52.350;13.402;2023-03-20T00:36:38;101159.22;;;15.84;53.56
31299;BME280;17927;52.350;13.402;2023-03-20T00:39:03;101161.06;;;15.83;53.42
31299;BME280;17927;52.350;13.402;2023-03-20T00:41:50;101163.97;;;15.82;53.26
31299;BME280;17927;52.350;13.402;2023-03-20T00:44:20;101154.44;;;15.78;53.33
31299;BME280;17927;52.350;13.402;2023-03-20T00:46:56;101147.09;;;15.70;53.34
31299;BME280;17927;52.350;13.402;2023-03-20T00:49:25;101153.22;;;15.64;53.45
31299;BME280;17927;52.350;13.402;2023-03-20T00:51:52;101155.25;;;15.62;53.40
31299;BME280;17927;52.350;13.402;2023-03-20T00:54:17;101154.72;;;15.58;53.27
31299;BME280;17927;52.350;13.402;2023-03-20T00:56:53;101152.19;;;15.57;53.51
31299;BME280;17927;52.350;13.402;2023-03-20T00:59:21;101146.91;;;15.55;53.44
31299;BME280;17927;52.350;13.402;2023-03-20T01:01:49;101155.41;;;15.52;53.29
31299;BME280;17927;52.350;13.402;2023-03-20T01:04:16;101157.25;;;15.51;53.36
31299;BME280;17927;52.350;13.402;2023-03-20T01:06:43;101157.44;;;15.50;53.33
31299;BME280;17927;52.350;13.402;2023-03-20T01:09:08;101155.72;;;15.49;53.38
31299;BME280;17927;52.350;13.402;2023-03-20T01:11:34;101154.34;;;15.45;53.55
31299;BME280;17927;52.350;13.402;2023-03-20T01:14:00;101149.78;;;15.45;53.67
31299;BME280;17927;52.350;13.402;2023-03-20T01:16:26;101150.63;;;15.46;53.32
31299;BME280;17927;52.350;13.402;2023-03-20T01:18:52;101153.50;;;15.44;53.74
31299;BME280;17927;52.350;13.402;2023-03-20T01:21:18;101145.50;;;15.43;53.91
31299;BME280;17927;52.350;13.402;2023-03-20T01:23:43;101152.13;;;15.40;54.20
31299;BME280;17927;52.350;13.402;2023-03-20T01:26:29;101153.16;;;15.39;54.24
31299;BME280;17927;52.350;13.402;2023-03-20T01:28:56;101159.09;;;15.34;54.57
31299;BME280;17927;52.350;13.402;2023-03-20T01:31:21;101152.94;;;15.32;54.52
31299;BME280;17927;52.350;13.402;2023-03-20T01:33:46;101155.69;;;15.32;54.64
31299;BME280;17927;52.350;13.402;2023-03-20T01:36:13;101154.84;;;15.32;55.04
31299;BME280;17927;52.350;13.402;2023-03-20T01:38:40;101164.03;;;15.31;55.21
31299;BME280;17927;52.350;13.402;2023-03-20T01:41:16;101165.19;;;15.28;55.42
31299;BME280;17927;52.350;13.402;2023-03-20T01:43:43;101164.47;;;15.26;55.56
31299;BME280;17927;52.350;13.402;2023-03-20T01:46:23;101159.91;;;15.27;55.55
31299;BME280;17927;52.350;13.402;2023-03-20T01:51:17;101158.53;;;15.22;55.57
31299;BME280;17927;52.350;13.402;2023-03-20T01:53:44;101152.06;;;15.23;55.84
31299;BME280;17927;52.350;13.402;2023-03-20T01:56:11;101156.50;;;15.25;55.82
31299;BME280;17927;52.350;13.402;2023-03-20T01:58:42;101152.06;;;15.23;55.71
31299;BME280;17927;52.350;13.402;2023-03-20T02:01:11;101151.06;;;15.25;55.77
31299;BME280;17927;52.350;13.402;2023-03-20T02:03:37;101153.78;;;15.25;55.72
31299;BME280;17927;52.350;13.402;2023-03-20T02:06:04;101158.38;;;15.24;55.90
31299;BME280;17927;52.350;13.402;2023-03-20T02:08:31;101166.69;;;15.22;55.92
31299;BME280;17927;52.350;13.402;2023-03-20T02:11:01;101167.00;;;15.19;55.94
31299;BME280;17927;52.350;13.402;2023-03-20T02:13:28;101167.38;;;15.16;55.85
31299;BME280;17927;52.350;13.402;2023-03-20T02:18:19;101182.63;;;15.09;55.80
31299;BME280;17927;52.350;13.402;2023-03-20T02:20:58;101173.06;;;15.05;55.97
31299;BME280;17927;52.350;13.402;2023-03-20T02:35:22;101169.94;;;14.91;56.48
31299;BME280;17927;52.350;13.402;2023-03-20T02:38:16;101174.69;;;14.89;56.42
31299;BME280;17927;52.350;13.402;2023-03-20T02:40:48;101171.44;;;14.86;56.59
31299;BME280;17927;52.350;13.402;2023-03-20T02:43:26;101166.00;;;14.86;56.44
31299;BME280;17927;52.350;13.402;2023-03-20T02:46:07;101164.47;;;14.83;56.47
31299;BME280;17927;52.350;13.402;2023-03-20T02:51:28;101160.19;;;14.81;56.52
31299;BME280;17927;52.350;13.402;2023-03-20T02:54:05;101164.78;;;14.80;56.57
31299;BME280;17927;52.350;13.402;2023-03-20T02:59:25;101165.09;;;14.77;56.63
31299;BME280;17927;52.350;13.402;2023-03-20T03:02:21;101172.41;;;14.76;56.64
31299;BME280;17927;52.350;13.402;2023-03-20T03:04:51;101161.84;;;14.73;56.64
31299;BME280;17927;52.350;13.402;2023-03-20T03:07:20;101162.88;;;14.72;56.46
31299;BME280;17927;52.350;13.402;2023-03-20T03:09:51;101163.88;;;14.71;56.58
31299;BME280;17927;52.350;13.402;2023-03-20T03:12:24;101166.91;;;14.68;56.55
31299;BME280;17927;52.350;13.402;2023-03-20T03:14:54;101165.91;;;14.69;56.56
31299;BME280;17927;52.350;13.402;2023-03-20T03:17:24;101158.63;;;14.70;56.37
31299;BME280;17927;52.350;13.402;2023-03-20T03:19:57;101172.88;;;14.72;56.51
31299;BME280;17927;52.350;13.402;2023-03-20T03:22:25;101161.84;;;14.73;56.23
31299;BME280;17927;52.350;13.402;2023-03-20T03:24:52;101165.97;;;14.77;56.31
31299;BME280;17927;52.350;13.402;2023-03-20T03:27:33;101165.63;;;14.81;56.37
31299;BME280;17927;52.350;13.402;2023-03-20T03:30:04;101168.19;;;14.82;56.25
31299;BME280;17927;52.350;13.402;2023-03-20T03:32:34;101162.75;;;14.82;56.24
31299;BME280;17927;52.350;13.402;2023-03-20T03:35:02;101168.72;;;14.86;56.01
31299;BME280;17927;52.350;13.402;2023-03-20T03:37:53;101167.53;;;14.88;56.08
31299;BME280;17927;52.350;13.402;2023-03-20T03:40:31;101170.16;;;14.72;56.18
31299;BME280;17927;52.350;13.402;2023-03-20T03:46:20;101165.09;;;14.77;56.03
31299;BME280;17927;52.350;13.402;2023-03-20T03:48:50;101168.69;;;14.77;55.95
31299;BME280;17927;52.350;13.402;2023-03-20T03:51:20;101174.97;;;14.78;56.04
31299;BME280;17927;52.350;13.402;2023-03-20T03:53:52;101181.28;;;14.79;55.85
31299;BME280;17927;52.350;13.402;2023-03-20T03:56:21;101184.00;;;14.79;55.85
31299;BME280;17927;52.350;13.402;2023-03-20T03:58:51;101187.56;;;14.79;55.77
31299;BME280;17927;52.350;13.402;2023-03-20T04:01:19;101188.03;;;14.74;55.85
31299;BME280;17927;52.350;13.402;2023-03-20T04:03:49;101188.88;;;14.75;55.87
31299;BME280;17927;52.350;13.402;2023-03-20T04:06:16;101191.78;;;14.73;55.67
31299;BME280;17927;52.350;13.402;2023-03-20T04:08:42;101186.66;;;14.70;55.63
31299;BME280;17927;52.350;13.402;2023-03-20T04:11:19;101186.47;;;14.72;55.60
31299;BME280;17927;52.350;13.402;2023-03-20T04:13:46;101179.78;;;14.66;55.64
31299;BME280;17927;52.350;13.402;2023-03-20T04:16:12;101185.56;;;14.63;55.77
31299;BME280;17927;52.350;13.402;2023-03-20T04:18:38;101182.16;;;14.61;55.72
31299;BME280;17927;52.350;13.402;2023-03-20T04:21:04;101190.44;;;14.59;55.92
31299;BME280;17927;52.350;13.402;2023-03-20T04:23:30;101185.00;;;14.59;55.91
31299;BME280;17927;52.350;13.402;2023-03-20T04:25:55;101187.59;;;14.61;55.88
31299;BME280;17927;52.350;13.402;2023-03-20T04:28:20;101202.00;;;14.61;55.79
31299;BME280;17927;52.350;13.402;2023-03-20T04:30:52;101204.72;;;14.61;55.81
31299;BME280;17927;52.350;13.402;2023-03-20T04:33:17;101203.03;;;14.60;55.69
31299;BME280;17927;52.350;13.402;2023-03-20T04:35:42;101206.63;;;14.61;55.67
31299;BME280;17927;52.350;13.402;2023-03-20T04:38:08;101214.91;;;14.59;55.97
31299;BME280;17927;52.350;13.402;2023-03-20T04:40:33;101207.75;;;14.58;55.88
31299;BME280;17927;52.350;13.402;2023-03-20T04:42:58;101207.06;;;14.56;55.94
31299;BME280;17927;52.350;13.402;2023-03-20T04:45:24;101207.75;;;14.58;56.05
31299;BME280;17927;52.350;13.402;2023-03-20T04:47:49;101214.06;;;14.59;55.94
31299;BME280;17927;52.350;13.402;2023-03-20T04:50:14;101213.91;;;14.60;56.28
31299;BME280;17927;52.350;13.402;2023-03-20T04:52:40;101211.19;;;14.60;56.14
31299;BME280;17927;52.350;13.402;2023-03-20T04:55:05;101207.44;;;14.61;56.11
31299;BME280;17927;52.350;13.402;2023-03-20T04:57:31;101213.59;;;14.64;56.04
31299;BME280;17927;52.350;13.402;2023-03-20T04:59:57;101207.31;;;14.63;56.10
31299;BME280;17927;52.350;13.402;2023-03-20T05:02:22;101206.63;;;14.61;56.07
31299;BME280;17927;52.350;13.402;2023-03-20T05:04:47;101205.03;;;14.58;56.11
31299;BME280;17927;52.350;13.402;2023-03-20T05:07:12;101210.97;;;14.54;56.17
31299;BME280;17927;52.350;13.402;2023-03-20T05:09:38;101205.13;;;14.49;56.32
31299;BME280;17927;52.350;13.402;2023-03-20T05:12:03;101216.19;;;14.47;56.36
31299;BME280;17927;52.350;13.402;2023-03-20T05:14:28;101217.34;;;14.44;56.38
31299;BME280;17927;52.350;13.402;2023-03-20T05:16:54;101223.09;;;14.41;56.44
31299;BME280;17927;52.350;13.402;2023-03-20T05:19:19;101215.44;;;14.37;56.57
31299;BME280;17927;52.350;13.402;2023-03-20T05:21:44;101227.59;;;14.32;56.57
31299;BME280;17927;52.350;13.402;2023-03-20T05:24:10;101221.63;;;14.29;56.74
31299;BME280;17927;52.350;13.402;2023-03-20T05:26:35;101216.50;;;14.26;56.85
31299;BME280;17927;52.350;13.402;2023-03-20T05:29:00;101221.41;;;14.22;57.01
31299;BME280;17927;52.350;13.402;2023-03-20T05:31:26;101228.69;;;14.22;56.73
31299;BME280;17927;52.350;13.402;2023-03-20T05:33:51;101224.84;;;14.24;56.97
31299;BME280;17927;52.350;13.402;2023-03-20T05:36:16;101224.50;;;14.27;56.96
31299;BME280;17927;52.350;13.402;2023-03-20T05:38:41;101222.47;;;14.29;57.05
31299;BME280;17927;52.350;13.402;2023-03-20T05:41:07;101225.91;;;14.31;57.12
31299;BME280;17927;52.350;13.402;2023-03-20T05:43:32;101220.63;;;14.30;56.84
31299;BME280;17927;52.350;13.402;2023-03-20T05:45:57;101217.91;;;14.30;57.06
31299;BME280;17927;52.350;13.402;2023-03-20T05:48:22;101219.75;;;14.29;57.13
31299;BME280;17927;52.350;13.402;2023-03-20T05:50:48;101226.06;;;14.30;57.38
31299;BME280;17927;52.350;13.402;2023-03-20T05:53:13;101222.47;;;14.29;57.28
31299;BME280;17927;52.350;13.402;2023-03-20T05:55:38;101235.75;;;14.32;57.21
31299;BME280;17927;52.350;13.402;2023-03-20T05:58:05;101230.31;;;14.32;57.28
31299;BME280;17927;52.350;13.402;2023-03-20T06:00:31;101226.78;;;14.32;57.32
31299;BME280;17927;52.350;13.402;2023-03-20T06:02:56;101223.88;;;14.34;57.23
31299;BME280;17927;52.350;13.402;2023-03-20T06:05:21;101225.91;;;14.31;57.35
31299;BME280;17927;52.350;13.402;2023-03-20T06:07:46;101219.75;;;14.29;57.56
31299;BME280;17927;52.350;13.402;2023-03-20T06:10:12;101240.50;;;14.30;57.45
31299;BME280;17927;52.350;13.402;2023-03-20T06:12:37;101234.06;;;14.31;57.70
31299;BME280;17927;52.350;13.402;2023-03-20T06:15:03;101237.47;;;14.34;57.57
31299;BME280;17927;52.350;13.402;2023-03-20T06:17:28;101235.59;;;14.34;57.48
31299;BME280;17927;52.350;13.402;2023-03-20T06:19:53;101242.75;;;14.35;57.71
31299;BME280;17927;52.350;13.402;2023-03-20T06:22:19;101240.88;;;14.36;57.77
31299;BME280;17927;52.350;13.402;2023-03-20T06:24:44;101247.03;;;14.38;57.55
31299;BME280;17927;52.350;13.402;2023-03-20T06:27:10;101254.84;;;14.41;57.72
31299;BME280;17927;52.350;13.402;2023-03-20T06:29:35;101250.13;;;14.43;57.92
31299;BME280;17927;52.350;13.402;2023-03-20T06:32:00;101255.25;;;14.46;57.93
31299;BME280;17927;52.350;13.402;2023-03-20T06:34:26;101266.50;;;14.51;58.06
31299;BME280;17927;52.350;13.402;2023-03-20T06:36:51;101270.47;;;14.57;58.09
31299;BME280;17927;52.350;13.402;2023-03-20T06:39:17;101277.13;;;14.62;58.30
31299;BME280;17927;52.350;13.402;2023-03-20T06:41:42;101283.09;;;14.66;58.38
31299;BME280;17927;52.350;13.402;2023-03-20T06:44:07;101287.53;;;14.67;57.97
31299;BME280;17927;52.350;13.402;2023-03-20T06:46:33;101278.09;;;14.71;58.37
31299;BME280;17927;52.350;13.402;2023-03-20T06:48:58;101277.78;;;14.74;58.20
31299;BME280;17927;52.350;13.402;2023-03-20T06:51:23;101282.75;;;14.79;58.27
31299;BME280;17927;52.350;13.402;2023-03-20T06:53:48;101296.88;;;14.83;58.24
31299;BME280;17927;52.350;13.402;2023-03-20T06:56:14;101293.00;;;14.85;58.26
31299;BME280;17927;52.350;13.402;2023-03-20T06:58:39;101296.38;;;14.87;58.04
31299;BME280;17927;52.350;13.402;2023-03-20T07:01:11;101290.81;;;14.89;58.38
31299;BME280;17927;52.350;13.402;2023-03-20T07:03:38;101286.19;;;14.89;58.22
31299;BME280;17927;52.350;13.402;2023-03-20T07:06:04;101291.50;;;14.91;58.23
31299;BME280;17927;52.350;13.402;2023-03-20T07:08:30;101304.94;;;14.92;58.24
31299;BME280;17927;52.350;13.402;2023-03-20T07:10:55;101301.22;;;14.94;58.14
31299;BME280;17927;52.350;13.402;2023-03-20T07:13:21;101318.53;;;14.92;57.97
31299;BME280;17927;52.350;13.402;2023-03-20T07:15:46;101313.09;;;14.92;57.94
31299;BME280;17927;52.350;13.402;2023-03-20T07:18:11;101310.69;;;14.89;57.84
31299;BME280;17927;52.350;13.402;2023-03-20T07:20:37;101321.75;;;14.88;57.78
31299;BME280;17927;52.350;13.402;2023-03-20T07:23:02;101316.47;;;14.86;57.71
31299;BME280;17927;52.350;13.402;2023-03-20T07:25:27;101321.91;;;14.86;57.73
31299;BME280;17927;52.350;13.402;2023-03-20T07:27:52;101319.50;;;14.83;57.64
31299;BME280;17927;52.350;13.402;2023-03-20T07:30:18;101318.63;;;14.83;57.57
31299;BME280;17927;52.350;13.402;2023-03-20T07:32:44;101324.94;;;14.83;57.66
31299;BME280;17927;52.350;13.402;2023-03-20T07:35:10;101330.38;;;14.83;57.61
31299;BME280;17927;52.350;13.402;2023-03-20T07:37:36;101333.94;;;14.84;57.58
31299;BME280;17927;52.350;13.402;2023-03-20T07:40:02;101333.94;;;14.84;57.61
31299;BME280;17927;52.350;13.402;2023-03-20T07:42:27;101335.66;;;14.85;57.71
31299;BME280;17927;52.350;13.402;2023-03-20T07:44:52;101335.81;;;14.83;57.40
31299;BME280;17927;52.350;13.402;2023-03-20T07:47:17;101344.97;;;14.82;57.40
31299;BME280;17927;52.350;13.402;2023-03-20T07:49:43;101336.13;;;14.80;57.29
31299;BME280;17927;52.350;13.402;2023-03-20T07:52:08;101339.00;;;14.79;57.33
31299;BME280;17927;52.350;13.402;2023-03-20T07:54:33;101332.88;;;14.76;57.16
31299;BME280;17927;52.350;13.402;2023-03-20T07:56:58;101339.16;;;14.77;57.22
31299;BME280;17927;52.350;13.402;2023-03-20T07:59:24;101341.72;;;14.79;57.28
31299;BME280;17927;52.350;13.402;2023-03-20T08:01:49;101336.97;;;14.81;57.21
31299;BME280;17927;52.350;13.402;2023-03-20T08:04:14;101340.38;;;14.83;57.33
31299;BME280;17927;52.350;13.402;2023-03-20T08:06:43;101337.34;;;14.86;57.19
31299;BME280;17927;52.350;13.402;2023-03-20T08:09:08;101338.91;;;14.88;57.47
31299;BME280;17927;52.350;13.402;2023-03-20T08:11:34;101344.91;;;14.92;57.32
31299;BME280;17927;52.350;13.402;2023-03-20T08:13:59;101340.16;;;14.94;56.99
31299;BME280;17927;52.350;13.402;2023-03-20T08:16:24;101340.84;;;14.96;56.98
31299;BME280;17927;52.350;13.402;2023-03-20T08:18:50;101350.56;;;14.99;56.92
31299;BME280;17927;52.350;13.402;2023-03-20T08:21:17;101354.66;;;15.03;57.03
31299;BME280;17927;52.350;13.402;2023-03-20T08:23:42;101355.03;;;15.08;56.94
31299;BME280;17927;52.350;13.402;2023-03-20T08:26:08;101362.19;;;15.09;56.84
31299;BME280;17927;52.350;13.402;2023-03-20T08:28:33;101368.16;;;15.13;56.83
31299;BME280;17927;52.350;13.402;2023-03-20T08:30:58;101367.84;;;15.16;56.69
31299;BME280;17927;52.350;13.402;2023-03-20T08:33:24;101370.44;;;15.17;56.67
31299;BME280;17927;52.350;13.402;2023-03-20T08:35:56;101372.13;;;15.18;56.62
31299;BME280;17927;52.350;13.402;2023-03-20T08:38:22;101380.28;;;15.18;56.45
31299;BME280;17927;52.350;13.402;2023-03-20T08:40:47;101384.72;;;15.19;56.41
31299;BME280;17927;52.350;13.402;2023-03-20T08:43:13;101383.69;;;15.20;56.36
31299;BME280;17927;52.350;13.402;2023-03-20T08:45:38;101383.00;;;15.18;56.19
31299;BME280;17927;52.350;13.402;2023-03-20T08:48:03;101383.00;;;15.18;56.27
31299;BME280;17927;52.350;13.402;2023-03-20T08:50:29;101386.59;;;15.19;56.42
31299;BME280;17927;52.350;13.402;2023-03-20T08:52:54;101385.41;;;15.21;56.36
31299;BME280;17927;52.350;13.402;2023-03-20T08:55:19;101373.22;;;15.26;56.24
31299;BME280;17927;52.350;13.402;2023-03-20T08:57:45;101380.56;;;15.33;56.28
31299;BME280;17927;52.350;13.402;2023-03-20T09:00:13;101377.59;;;15.45;56.25
31299;BME280;17927;52.350;13.402;2023-03-20T09:02:40;101378.34;;;15.55;56.37
31299;BME280;17927;52.350;13.402;2023-03-20T09:05:06;101377.59;;;15.71;56.42
31299;BME280;17927;52.350;13.402;2023-03-20T09:07:31;101372.44;;;15.86;56.40
31299;BME280;17927;52.350;13.402;2023-03-20T09:09:57;101363.47;;;16.02;56.52
31299;BME280;17927;52.350;13.402;2023-03-20T09:12:22;101366.25;;;16.19;56.22
31299;BME280;17927;52.350;13.402;2023-03-20T09:14:47;101369.84;;;16.36;55.89
31299;BME280;17927;52.350;13.402;2023-03-20T09:17:13;101379.97;;;16.52;55.94
31299;BME280;17927;52.350;13.402;2023-03-20T09:19:38;101374.03;;;16.65;55.51
31299;BME280;17927;52.350;13.402;2023-03-20T09:22:06;101374.72;;;16.75;55.18
31299;BME280;17927;52.350;13.402;2023-03-20T09:24:31;101379.34;;;16.83;54.96
31299;BME280;17927;52.350;13.402;2023-03-20T09:26:57;101379.50;;;16.89;54.42
31299;BME280;17927;52.350;13.402;2023-03-20T09:29:25;101370.81;;;16.94;54.00
31299;BME280;17927;52.350;13.402;2023-03-20T09:31:52;101381.41;;;16.97;53.59
31299;BME280;17927;52.350;13.402;2023-03-20T09:34:18;101373.41;;;16.96;53.57
31299;BME280;17927;52.350;13.402;2023-03-20T09:36:43;101376.16;;;16.96;53.69
31299;BME280;17927;52.350;13.402;2023-03-20T09:39:08;101371.72;;;16.95;53.29
31299;BME280;17927;52.350;13.402;2023-03-20T09:41:34;101373.06;;;16.99;53.21
31299;BME280;17927;52.350;13.402;2023-03-20T09:44:18;101373.41;;;17.04;53.11
31299;BME280;17927;52.350;13.402;2023-03-20T09:46:57;101376.13;;;17.04;53.01
31299;BME280;17927;52.350;13.402;2023-03-20T09:54:49;101369.63;;;17.13;52.50
31299;BME280;17927;52.350;13.402;2023-03-20T09:57:23;101371.00;;;17.17;52.13
31299;BME280;17927;52.350;13.402;2023-03-20T09:59:54;101371.16;;;17.24;52.18
31299;BME280;17927;52.350;13.402;2023-03-20T10:02:28;101376.78;;;17.31;52.51
31299;BME280;17927;52.350;13.402;2023-03-20T10:04:58;101372.19;;;17.40;52.32
31299;BME280;17927;52.350;13.402;2023-03-20T10:07:24;101382.22;;;17.47;51.85
31299;BME280;17927;52.350;13.402;2023-03-20T10:09:50;101387.84;;;17.54;51.75
31299;BME280;17927;52.350;13.402;2023-03-20T10:15:03;101379.50;;;17.56;51.58
31299;BME280;17927;52.350;13.402;2023-03-20T10:18:04;101381.88;;;17.59;50.95
31299;BME280;17927;52.350;13.402;2023-03-20T10:20:40;101375.38;;;17.60;51.34
31299;BME280;17927;52.350;13.402;2023-03-20T10:23:26;101372.28;;;17.63;50.98
31299;BME280;17927;52.350;13.402;2023-03-20T10:28:43;101374.00;;;17.64;50.76
31299;BME280;17927;52.350;13.402;2023-03-20T10:33:56;101364.94;;;17.72;50.56
31299;BME280;17927;52.350;13.402;2023-03-20T10:36:55;101352.81;;;17.74;50.56
31299;BME280;17927;52.350;13.402;2023-03-20T10:42:29;101359.81;;;17.77;50.60
31299;BME280;17927;52.350;13.402;2023-03-20T10:45:01;101360.97;;;17.83;50.26
31299;BME280;17927;52.350;13.402;2023-03-20T10:47:29;101363.22;;;17.71;50.78
31299;BME280;17927;52.350;13.402;2023-03-20T10:50:00;101360.81;;;17.76;50.28
31299;BME280;17927;52.350;13.402;2023-03-20T10:52:30;101366.25;;;17.84;50.59
31299;BME280;17927;52.350;13.402;2023-03-20T10:55:00;101358.03;;;17.92;50.50
31299;BME280;17927;52.350;13.402;2023-03-20T10:57:30;101361.25;;;17.96;49.88
31299;BME280;17927;52.350;13.402;2023-03-20T10:59:58;101361.78;;;18.00;50.16
31299;BME280;17927;52.350;13.402;2023-03-20T11:02:27;101356.84;;;18.03;49.52
31299;BME280;17927;52.350;13.402;2023-03-20T11:04:53;101357.50;;;18.05;49.29
31299;BME280;17927;52.350;13.402;2023-03-20T11:07:32;101365.34;;;18.08;49.25
31299;BME280;17927;52.350;13.402;2023-03-20T11:12:41;101356.97;;;18.10;49.18
31299;BME280;17927;52.350;13.402;2023-03-20T11:15:27;101349.81;;;18.09;49.21
31299;BME280;17927;52.350;13.402;2023-03-20T11:17:57;101350.16;;;18.06;49.27
31299;BME280;17927;52.350;13.402;2023-03-20T11:20:24;101348.44;;;18.05;48.83
31299;BME280;17927;52.350;13.402;2023-03-20T11:22:50;101350.50;;;18.03;48.51
31299;BME280;17927;52.350;13.402;2023-03-20T11:25:28;101356.66;;;17.96;48.46
31299;BME280;17927;52.350;13.402;2023-03-20T11:27:55;101354.28;;;17.93;49.04
31299;BME280;17927;52.350;13.402;2023-03-20T11:30:21;101349.84;;;17.92;49.02
31299;BME280;17927;52.350;13.402;2023-03-20T11:32:49;101347.78;;;17.94;48.71
31299;BME280;17927;52.350;13.402;2023-03-20T11:37:51;101343.00;;;17.96;48.58
31299;BME280;17927;52.350;13.402;2023-03-20T11:40:30;101336.53;;;17.98;48.55
31299;BME280;17927;52.350;13.402;2023-03-20T11:45:24;101346.75;;;18.04;48.57
31299;BME280;17927;52.350;13.402;2023-03-20T11:47:52;101341.59;;;18.09;48.39
31299;BME280;17927;52.350;13.402;2023-03-20T11:50:30;101338.31;;;18.14;48.51
31299;BME280;17927;52.350;13.402;2023-03-20T11:52:57;101346.16;;;18.17;48.68
31299;BME280;17927;52.350;13.402;2023-03-20T11:55:26;101336.94;;;18.18;48.13
31299;BME280;17927;52.350;13.402;2023-03-20T11:57:57;101335.22;;;18.17;48.30
31299;BME280;17927;52.350;13.402;2023-03-20T12:00:25;101327.38;;;18.14;47.74
31299;BME280;17927;52.350;13.402;2023-03-20T12:02:52;101319.06;;;18.07;47.49
31299;BME280;17927;52.350;13.402;2023-03-20T12:05:19;101324.03;;;18.03;47.89
31299;BME280;17927;52.350;13.402;2023-03-20T12:07:52;101319.75;;;18.01;47.63
31299;BME280;17927;52.350;13.402;2023-03-20T12:10:22;101317.22;;;17.99;47.74
31299;BME280;17927;52.350;13.402;2023-03-20T12:13:15;101317.22;;;17.99;47.55
31299;BME280;17927;52.350;13.402;2023-03-20T12:15:49;101309.53;;;17.94;47.71
31299;BME280;17927;52.350;13.402;2023-03-20T12:18:24;101310.72;;;17.92;47.78
31299;BME280;17927;52.350;13.402;2023-03-20T12:21:14;101308.16;;;17.90;47.35
31299;BME280;17927;52.350;13.402;2023-03-20T12:23:48;101305.97;;;17.86;47.30
31299;BME280;17927;52.350;13.402;2023-03-20T12:28:53;101302.06;;;17.80;47.16
31299;BME280;17927;52.350;13.402;2023-03-20T12:34:18;101298.81;;;17.76;47.00
31299;BME280;17927;52.350;13.402;2023-03-20T12:36:47;101302.22;;;17.78;47.69
31299;BME280;17927;52.350;13.402;2023-03-20T12:39:16;101290.56;;;17.93;47.96
31299;BME280;17927;52.350;13.402;2023-03-20T12:41:57;101287.22;;;18.14;48.44
31299;BME280;17927;52.350;13.402;2023-03-20T12:47:21;101285.00;;;18.64;48.12
31299;BME280;17927;52.350;13.402;2023-03-20T12:50:01;101285.91;;;18.80;47.67
31299;BME280;17927;52.350;13.402;2023-03-20T12:58:23;101282.50;;;18.93;46.53
31299;BME280;17927;52.350;13.402;2023-03-20T13:09:26;101273.03;;;18.65;46.24
31299;BME280;17927;52.350;13.402;2023-03-20T13:17:21;101275.22;;;18.47;45.79
31299;BME280;17927;52.350;13.402;2023-03-20T13:19:59;101273.88;;;18.42;45.73
31299;BME280;17927;52.350;13.402;2023-03-20T13:22:41;101271.50;;;18.39;45.73
31299;BME280;17927;52.350;13.402;2023-03-20T13:25:40;101277.84;;;18.40;46.00
31299;BME280;17927;52.350;13.402;2023-03-20T13:31:33;101263.53;;;18.30;46.19
31299;BME280;17927;52.350;13.402;2023-03-20T13:34:57;101260.63;;;18.31;46.14
31299;BME280;17927;52.350;13.402;2023-03-20T13:37:11;101262.81;;;18.36;46.22
31299;BME280;17927;52.350;13.402;2023-03-20T13:39:42;101248.41;;;18.42;46.16
31299;BME280;17927;52.350;13.402;2023-03-20T13:42:13;101250.75;;;18.45;46.30
31299;BME280;17927;52.350;13.402;2023-03-20T13:44:40;101247.00;;;18.46;46.12
31299;BME280;17927;52.350;13.402;2023-03-20T13:47:19;101253.81;;;18.50;46.34
31299;BME280;17927;52.350;13.402;2023-03-20T13:50:22;101245.81;;;18.49;45.82
31299;BME280;17927;52.350;13.402;2023-03-20T13:52:55;101245.28;;;18.45;46.11
31299;BME280;17927;52.350;13.402;2023-03-20T13:55:51;101242.03;;;18.50;45.92
31299;BME280;17927;52.350;13.402;2023-03-20T13:58:59;101251.81;;;18.44;45.87
31299;BME280;17927;52.350;13.402;2023-03-20T14:01:58;101247.06;;;18.38;45.46
31299;BME280;17927;52.350;13.402;2023-03-20T14:04:31;101249.38;;;18.26;45.51
31299;BME280;17927;52.350;13.402;2023-03-20T14:06:58;101248.03;;;18.22;45.90
31299;BME280;17927;52.350;13.402;2023-03-20T14:11:55;101244.69;;;18.11;45.81
31299;BME280;17927;52.350;13.402;2023-03-20T14:14:26;101240.44;;;18.09;45.76
31299;BME280;17927;52.350;13.402;2023-03-20T14:19:36;101243.22;;;18.01;45.74